createdAt,value
2023-01-09T00:01:56.830Z,3.61
2023-01-09T00:04:17.595Z,3.58
2023-01-09T00:06:40.254Z,3.63
2023-01-09T00:09:00.777Z,3.62
2023-01-09T00:11:21.256Z,3.63
2023-01-09T00:13:42.101Z,3.61
2023-01-09T00:16:03.739Z,3.60
2023-01-09T00:18:24.398Z,3.60
2023-01-09T00:20:44.939Z,3.61
2023-01-09T00:23:05.402Z,3.59
2023-01-09T00:25:25.945Z,3.58
2023-01-09T00:27:46.478Z,3.62
2023-01-09T00:30:08.124Z,3.66
2023-01-09T00:32:28.925Z,3.61
2023-01-09T00:34:49.687Z,3.63
2023-01-09T00:37:12.069Z,3.62
2023-01-09T00:39:32.547Z,3.68
2023-01-09T00:41:54.467Z,3.69
2023-01-09T00:44:33.903Z,3.68
2023-01-09T00:46:57.904Z,3.63
2023-01-09T00:49:18.823Z,3.62
2023-01-09T00:51:39.494Z,3.63
2023-01-09T00:53:59.979Z,3.64
2023-01-09T00:56:21.123Z,3.63
2023-01-09T00:58:41.611Z,3.62
2023-01-09T01:01:02.409Z,3.63
2023-01-09T01:03:22.962Z,3.63
2023-01-09T01:06:01.720Z,3.66
2023-01-09T01:08:22.283Z,3.64
2023-01-09T01:10:43.018Z,3.64
2023-01-09T01:13:03.473Z,3.63
2023-01-09T01:15:24.056Z,3.62
2023-01-09T01:17:45.193Z,3.62
2023-01-09T01:20:08.517Z,3.65
2023-01-09T01:22:28.950Z,3.59
2023-01-09T01:24:50.532Z,3.58
2023-01-09T01:27:11.096Z,3.58
2023-01-09T01:29:31.564Z,3.62
2023-01-09T01:31:52.370Z,3.59
2023-01-09T01:34:12.724Z,3.53
2023-01-09T01:36:34.043Z,3.57
2023-01-09T01:38:54.410Z,3.58
2023-01-09T01:41:29.500Z,3.60
2023-01-09T01:43:55.390Z,3.53
2023-01-09T01:46:18.288Z,3.52
2023-01-09T01:48:38.765Z,3.53
2023-01-09T01:51:04.680Z,3.53
2023-01-09T01:53:35.088Z,3.55
2023-01-09T01:56:16.489Z,3.56
2023-01-09T01:58:45.656Z,3.56
2023-01-09T02:01:06.317Z,3.54
2023-01-09T02:03:27.915Z,3.53
2023-01-09T02:05:48.626Z,3.51
2023-01-09T02:08:09.329Z,3.53
2023-01-09T02:10:30.147Z,3.53
2023-01-09T02:12:50.944Z,3.54
2023-01-09T02:15:14.047Z,3.53
2023-01-09T02:17:44.652Z,3.53
2023-01-09T02:20:34.512Z,3.49
2023-01-09T02:22:58.719Z,3.47
2023-01-09T02:25:51.167Z,3.43
2023-01-09T02:28:55.729Z,3.51
2023-01-09T02:31:40.554Z,3.49
2023-01-09T02:34:24.818Z,3.53
2023-01-09T02:37:19.414Z,3.56
2023-01-09T02:39:59.266Z,3.57
2023-01-09T02:42:23.751Z,3.54
2023-01-09T02:44:45.584Z,3.59
2023-01-09T02:47:18.235Z,3.57
2023-01-09T02:49:38.964Z,3.58
2023-01-09T02:52:32.071Z,3.57
2023-01-09T02:55:37.561Z,3.57
2023-01-09T02:58:10.742Z,3.58
2023-01-09T03:00:40.191Z,3.57
2023-01-09T03:03:27.729Z,3.59
2023-01-09T03:06:03.889Z,3.61
2023-01-09T03:08:28.856Z,3.62
2023-01-09T03:11:08.986Z,3.59
2023-01-09T03:13:54.614Z,3.56
2023-01-09T03:16:21.434Z,3.63
2023-01-09T03:18:41.837Z,3.60
2023-01-09T03:21:02.322Z,3.62
2023-01-09T03:23:22.930Z,3.64
2023-01-09T03:25:43.414Z,3.69
2023-01-09T03:28:07.083Z,3.68
2023-01-09T03:30:28.970Z,3.70
2023-01-09T03:32:49.833Z,3.69
2023-01-09T03:35:10.318Z,3.71
2023-01-09T03:37:30.854Z,3.71
2023-01-09T03:39:51.358Z,3.68
2023-01-09T03:42:11.859Z,3.70
2023-01-09T03:44:32.440Z,3.69
2023-01-09T03:46:53.232Z,3.66
2023-01-09T03:49:14.005Z,3.65
2023-01-09T03:51:34.742Z,3.62
2023-01-09T03:53:55.236Z,3.64
2023-01-09T03:56:15.833Z,3.70
2023-01-09T03:58:36.406Z,3.73
2023-01-09T04:01:05.070Z,3.72
2023-01-09T04:03:25.975Z,3.67
2023-01-09T04:05:47.764Z,3.65
2023-01-09T04:07:59.190Z,3.64
2023-01-09T04:10:19.882Z,3.68
2023-01-09T04:12:40.523Z,3.70
2023-01-09T04:15:00.978Z,3.68
2023-01-09T04:17:21.652Z,3.71
2023-01-09T04:19:42.387Z,3.68
2023-01-09T04:22:02.939Z,3.68
2023-01-09T04:24:23.557Z,3.69
2023-01-09T04:26:44.093Z,3.67
2023-01-09T04:29:04.625Z,3.68
2023-01-09T04:31:25.335Z,3.72
2023-01-09T04:33:47.138Z,3.69
2023-01-09T04:36:08.263Z,3.71
2023-01-09T04:38:28.904Z,3.70
2023-01-09T04:40:49.398Z,3.66
2023-01-09T04:43:09.858Z,3.65
2023-01-09T04:45:30.521Z,3.66
2023-01-09T04:47:51.038Z,3.70
2023-01-09T04:50:12.439Z,3.75
2023-01-09T04:52:33.148Z,3.75
2023-01-09T04:54:53.793Z,3.71
2023-01-09T04:57:14.493Z,3.75
2023-01-09T04:59:35.461Z,3.79
2023-01-09T05:01:58.357Z,3.84
2023-01-09T05:04:19.040Z,3.84
2023-01-09T05:06:39.500Z,3.82
2023-01-09T05:09:00.644Z,3.81
2023-01-09T05:11:21.588Z,3.78
2023-01-09T05:13:42.073Z,3.78
2023-01-09T05:16:02.473Z,3.76
2023-01-09T05:18:23.072Z,3.75
2023-01-09T05:20:43.553Z,3.69
2023-01-09T05:22:45.865Z,3.65
2023-01-09T05:24:48.035Z,3.63
2023-01-09T05:26:50.132Z,3.62
2023-01-09T05:28:58.918Z,3.60
2023-01-09T05:31:01.028Z,3.61
2023-01-09T05:33:03.097Z,3.59
2023-01-09T05:35:05.751Z,3.59
2023-01-09T05:37:07.721Z,3.57
2023-01-09T05:39:10.037Z,3.57
2023-01-09T05:41:12.120Z,3.54
2023-01-09T05:43:14.118Z,3.49
2023-01-09T05:45:16.234Z,3.50
2023-01-09T05:47:18.262Z,3.47
2023-01-09T05:49:21.456Z,3.47
2023-01-09T05:51:23.603Z,3.44
2023-01-09T05:53:25.671Z,3.46
2023-01-09T05:55:27.773Z,3.45
2023-01-09T05:57:29.842Z,3.45
2023-01-09T05:59:31.953Z,3.40
2023-01-09T06:01:34.057Z,3.39
2023-01-09T06:03:36.087Z,3.31
2023-01-09T06:05:38.194Z,3.32
2023-01-09T06:07:40.846Z,3.32
2023-01-09T06:09:46.134Z,3.27
2023-01-09T06:11:48.248Z,3.24
2023-01-09T06:13:50.293Z,3.23
2023-01-09T06:15:52.513Z,3.28
2023-01-09T06:17:54.772Z,3.29
2023-01-09T06:19:56.967Z,3.28
2023-01-09T06:21:59.069Z,3.26
2023-01-09T06:24:01.196Z,3.21
2023-01-09T06:26:03.367Z,3.25
2023-01-09T06:28:05.630Z,3.27
2023-01-09T06:30:08.993Z,3.28
2023-01-09T06:32:11.075Z,3.25
2023-01-09T06:34:13.145Z,3.31
2023-01-09T06:36:15.354Z,3.26
2023-01-09T06:38:17.448Z,3.25
2023-01-09T06:40:21.284Z,3.21
2023-01-09T06:42:23.518Z,3.22
2023-01-09T06:44:25.633Z,3.22
2023-01-09T06:46:27.759Z,3.22
2023-01-09T06:48:29.929Z,3.20
2023-01-09T06:50:32.555Z,3.17
2023-01-09T06:52:34.695Z,3.07
2023-01-09T06:54:36.778Z,3.12
2023-01-09T06:56:38.804Z,3.12
2023-01-09T06:58:40.914Z,3.13
2023-01-09T07:00:43.606Z,3.08
2023-01-09T07:02:45.662Z,3.08
2023-01-09T07:04:47.848Z,3.09
2023-01-09T07:06:50.073Z,3.08
2023-01-09T07:08:52.094Z,3.07
2023-01-09T07:10:54.223Z,3.01
2023-01-09T07:12:56.392Z,3.06
2023-01-09T07:14:58.607Z,3.03
2023-01-09T07:17:00.691Z,2.98
2023-01-09T07:19:03.591Z,2.94
2023-01-09T07:21:08.797Z,2.87
2023-01-09T07:23:13.045Z,2.90
2023-01-09T07:25:15.214Z,2.83
2023-01-09T07:27:17.285Z,2.71
2023-01-09T07:29:19.426Z,2.64
2023-01-09T07:31:21.544Z,2.61
2023-01-09T07:33:23.703Z,2.62
2023-01-09T07:35:25.807Z,2.64
2023-01-09T07:37:27.937Z,2.55
2023-01-09T07:39:30.126Z,2.49
2023-01-09T07:41:32.194Z,2.42
2023-01-09T07:43:34.297Z,2.43
2023-01-09T07:45:36.352Z,2.48
2023-01-09T07:47:41.778Z,2.48
2023-01-09T07:49:43.881Z,2.39
2023-01-09T07:51:48.332Z,2.39
2023-01-09T07:53:50.456Z,2.42
2023-01-09T07:55:52.570Z,2.39
2023-01-09T07:57:54.630Z,2.44
2023-01-09T07:59:56.979Z,2.33
2023-01-09T08:01:59.183Z,2.34
2023-01-09T08:04:01.228Z,2.37
2023-01-09T08:06:03.412Z,2.33
2023-01-09T08:08:07.178Z,2.33
2023-01-09T08:10:10.684Z,2.30
2023-01-09T08:12:12.735Z,2.37
2023-01-09T08:14:15.267Z,2.32
2023-01-09T08:16:17.641Z,2.32
2023-01-09T08:18:19.846Z,2.25
2023-01-09T08:20:22.000Z,2.34
2023-01-09T08:22:24.145Z,2.33
2023-01-09T08:24:26.284Z,2.35
2023-01-09T08:26:28.371Z,2.37
2023-01-09T08:28:30.577Z,2.43
2023-01-09T08:30:32.746Z,2.47
2023-01-09T08:32:34.831Z,2.44
2023-01-09T08:34:37.046Z,2.49
2023-01-09T08:36:39.227Z,2.54
2023-01-09T08:38:41.267Z,2.56
2023-01-09T08:40:43.409Z,2.53
2023-01-09T08:43:04.078Z,2.58
2023-01-09T08:45:25.908Z,2.61
2023-01-09T08:47:33.354Z,2.67
2023-01-09T08:49:37.365Z,2.71
2023-01-09T08:51:39.452Z,2.75
2023-01-09T08:53:41.557Z,2.76
2023-01-09T08:55:43.722Z,2.78
2023-01-09T08:57:53.113Z,2.80
2023-01-09T08:59:55.309Z,2.82
2023-01-09T09:01:58.351Z,2.85
2023-01-09T09:04:00.941Z,2.87
2023-01-09T09:06:03.313Z,2.92
2023-01-09T09:08:06.271Z,2.90
2023-01-09T09:10:09.184Z,2.94
2023-01-09T09:12:11.265Z,2.95
2023-01-09T09:14:32.089Z,2.95
2023-01-09T09:16:34.222Z,2.95
2023-01-09T09:18:36.326Z,2.98
2023-01-09T09:20:39.090Z,3.00
2023-01-09T09:22:41.054Z,2.93
2023-01-09T09:24:43.081Z,2.94
2023-01-09T09:26:45.205Z,3.03
2023-01-09T09:28:47.351Z,3.05
2023-01-09T09:30:49.496Z,3.06
2023-01-09T09:32:51.545Z,3.07
2023-01-09T09:34:53.712Z,3.11
2023-01-09T09:36:55.807Z,3.13
2023-01-09T09:38:57.963Z,3.14
2023-01-09T09:41:31.408Z,3.20
2023-01-09T09:44:24.916Z,3.20
2023-01-09T09:46:47.125Z,3.24
2023-01-09T09:48:58.176Z,3.22
2023-01-09T09:51:37.324Z,3.23
2023-01-09T09:53:50.650Z,3.24
2023-01-09T09:55:52.687Z,3.28
2023-01-09T09:57:54.821Z,3.31
2023-01-09T09:59:56.869Z,3.31
2023-01-09T10:02:10.499Z,3.33
2023-01-09T10:04:17.767Z,3.31
2023-01-09T10:06:33.125Z,3.33
2023-01-09T10:08:56.146Z,3.37
2023-01-09T10:10:58.291Z,3.38
2023-01-09T10:13:20.767Z,3.41
2023-01-09T10:15:29.248Z,3.38
2023-01-09T10:17:41.644Z,3.36
2023-01-09T10:19:47.946Z,3.41
2023-01-09T10:22:11.261Z,3.44
2023-01-09T10:25:11.294Z,3.47
2023-01-09T10:27:32.097Z,3.52
2023-01-09T10:29:41.592Z,3.51
2023-01-09T10:32:20.032Z,3.56
2023-01-09T10:34:49.473Z,3.54
2023-01-09T10:37:13.501Z,3.55
2023-01-09T10:39:46.587Z,3.59
2023-01-09T10:42:04.055Z,3.63
2023-01-09T10:44:25.321Z,3.70
2023-01-09T10:46:38.370Z,3.64
2023-01-09T10:48:44.299Z,3.57
2023-01-09T10:50:46.543Z,3.59
2023-01-09T10:52:51.367Z,3.60
2023-01-09T10:54:57.132Z,3.60
2023-01-09T10:57:07.565Z,3.53
2023-01-09T10:59:09.753Z,3.53
2023-01-09T11:01:11.860Z,3.49
2023-01-09T11:03:16.375Z,3.50
2023-01-09T11:05:25.142Z,3.54
2023-01-09T11:07:30.722Z,3.52
2023-01-09T11:09:59.136Z,3.60
2023-01-09T11:12:23.855Z,3.64
2023-01-09T11:14:33.334Z,3.65
2023-01-09T11:16:35.689Z,3.71
2023-01-09T11:18:51.912Z,3.71
2023-01-09T11:20:54.056Z,3.73
2023-01-09T11:22:58.010Z,3.72
2023-01-09T11:25:01.613Z,3.78
2023-01-09T11:27:24.087Z,3.80
2023-01-09T11:29:26.582Z,3.81
2023-01-09T11:31:29.166Z,3.83
2023-01-09T11:33:37.902Z,3.83
2023-01-09T11:35:39.930Z,3.84
2023-01-09T11:37:42.015Z,3.89
2023-01-09T11:39:47.113Z,3.88
2023-01-09T11:41:52.771Z,3.92
2023-01-09T11:43:57.514Z,3.97
2023-01-09T11:46:11.537Z,3.98
2023-01-09T11:48:19.492Z,3.95
2023-01-09T11:50:27.280Z,3.95
2023-01-09T11:52:29.499Z,3.98
2023-01-09T11:54:32.634Z,3.99
2023-01-09T11:56:36.692Z,4.01
2023-01-09T11:58:38.791Z,3.99
2023-01-09T12:01:03.177Z,4.04
2023-01-09T12:03:59.000Z,4.06
2023-01-09T12:06:10.969Z,4.06
2023-01-09T12:08:36.201Z,4.08
2023-01-09T12:11:36.944Z,4.08
2023-01-09T12:14:04.180Z,4.12
2023-01-09T12:16:51.154Z,4.11
2023-01-09T12:19:11.123Z,4.14
2023-01-09T12:21:36.352Z,4.14
2023-01-09T12:23:48.962Z,4.16
2023-01-09T12:26:17.340Z,4.19
2023-01-09T12:29:10.584Z,4.18
2023-01-09T12:31:28.611Z,4.22
2023-01-09T12:33:43.076Z,4.21
2023-01-09T12:35:51.413Z,4.25
2023-01-09T12:38:21.914Z,4.26
2023-01-09T12:40:30.681Z,4.30
2023-01-09T12:43:02.558Z,4.32
2023-01-09T12:45:24.250Z,4.32
2023-01-09T12:47:49.085Z,4.31
2023-01-09T12:50:34.411Z,4.33
2023-01-09T12:53:10.809Z,4.38
2023-01-09T12:55:23.811Z,4.37
2023-01-09T12:57:37.664Z,4.37
2023-01-09T12:59:49.233Z,4.37
2023-01-09T13:01:51.295Z,4.42
2023-01-09T13:04:18.286Z,4.42
2023-01-09T13:06:21.392Z,4.41
2023-01-09T13:08:40.733Z,4.40
2023-01-09T13:10:46.254Z,4.46
2023-01-09T13:12:48.648Z,4.51
2023-01-09T13:14:56.437Z,4.49
2023-01-09T13:16:58.508Z,4.51
2023-01-09T13:19:07.883Z,4.57
2023-01-09T13:21:10.171Z,4.56
2023-01-09T13:24:00.340Z,4.52
2023-01-09T13:26:08.189Z,4.57
2023-01-09T13:28:54.989Z,4.50
2023-01-09T13:31:30.748Z,4.54
2023-01-09T13:33:49.948Z,4.55
2023-01-09T13:35:54.468Z,4.54
2023-01-09T13:37:56.648Z,4.58
2023-01-09T13:40:04.198Z,4.51
2023-01-09T13:42:26.092Z,4.55
2023-01-09T13:44:28.895Z,4.53
2023-01-09T13:46:58.922Z,4.60
2023-01-09T13:49:01.399Z,4.61
2023-01-09T13:51:44.198Z,4.56
2023-01-09T13:53:46.777Z,4.59
2023-01-09T13:55:58.380Z,4.56
2023-01-09T13:58:08.706Z,4.53
2023-01-09T14:00:14.662Z,4.54
2023-01-09T14:02:50.028Z,4.51
2023-01-09T14:04:52.081Z,4.54
2023-01-09T14:07:23.331Z,4.50
2023-01-09T14:09:25.426Z,4.50
2023-01-09T14:11:29.153Z,4.42
2023-01-09T14:13:33.889Z,4.46
2023-01-09T14:15:41.229Z,4.49
2023-01-09T14:17:43.323Z,4.48
2023-01-09T14:19:45.495Z,4.44
2023-01-09T14:21:54.452Z,4.45
2023-01-09T14:24:06.175Z,4.45
2023-01-09T14:26:25.345Z,4.37
2023-01-09T14:28:31.859Z,4.45
2023-01-09T14:30:39.211Z,4.45
2023-01-09T14:32:44.670Z,4.44
2023-01-09T14:35:08.315Z,4.45
2023-01-09T14:37:12.652Z,4.44
2023-01-09T14:39:14.838Z,4.43
2023-01-09T14:41:55.588Z,4.44
2023-01-09T14:44:03.687Z,4.44
2023-01-09T14:46:20.429Z,4.43
2023-01-09T14:48:24.472Z,4.45
2023-01-09T14:50:33.527Z,4.43
2023-01-09T14:52:37.862Z,4.42
2023-01-09T14:54:42.206Z,4.32
2023-01-09T14:56:48.100Z,4.37
2023-01-09T14:59:26.229Z,4.43
2023-01-09T15:01:32.622Z,4.47
2023-01-09T15:03:50.002Z,4.57
2023-01-09T15:05:52.950Z,4.62
2023-01-09T15:08:01.573Z,4.64
2023-01-09T15:10:04.043Z,4.61
2023-01-09T15:12:08.724Z,4.59
2023-01-09T15:14:32.657Z,4.54
2023-01-09T15:16:34.880Z,4.47
2023-01-09T15:18:42.103Z,4.47
2023-01-09T15:20:44.126Z,4.47
2023-01-09T15:22:51.150Z,4.45
2023-01-09T15:24:55.041Z,4.37
2023-01-09T15:27:04.634Z,4.36
2023-01-09T15:29:17.898Z,4.37
2023-01-09T15:31:22.900Z,4.34
2023-01-09T15:33:25.098Z,4.35
2023-01-09T15:35:27.720Z,4.25
2023-01-09T15:37:39.157Z,4.27
2023-01-09T15:39:41.434Z,4.32
2023-01-09T15:42:01.966Z,4.25
2023-01-09T15:44:05.262Z,4.27
2023-01-09T15:46:07.505Z,4.28
2023-01-09T15:48:33.054Z,4.26
2023-01-09T15:50:35.256Z,4.30
2023-01-09T15:52:37.305Z,4.29
2023-01-09T15:54:40.038Z,4.29
2023-01-09T15:56:44.432Z,4.29
2023-01-09T15:58:50.765Z,4.23
2023-01-09T16:00:58.593Z,4.20
2023-01-09T16:03:11.880Z,4.28
2023-01-09T16:05:16.077Z,4.23
2023-01-09T16:07:20.270Z,4.26
2023-01-09T16:09:30.252Z,4.20
2023-01-09T16:11:38.611Z,4.17
2023-01-09T16:13:44.100Z,4.17
2023-01-09T16:15:46.327Z,4.17
2023-01-09T16:18:18.040Z,4.20
2023-01-09T16:20:25.590Z,4.18
2023-01-09T16:22:34.170Z,4.21
2023-01-09T16:24:45.395Z,4.21
2023-01-09T16:26:47.622Z,4.21
2023-01-09T16:28:51.062Z,4.18
2023-01-09T16:31:01.756Z,4.16
2023-01-09T16:33:04.719Z,4.18
2023-01-09T16:35:18.015Z,4.22
2023-01-09T16:37:21.835Z,4.18
2023-01-09T16:39:25.620Z,4.21
2023-01-09T16:41:46.572Z,4.15
2023-01-09T16:43:51.883Z,4.13
2023-01-09T16:45:55.681Z,4.14
2023-01-09T16:47:58.284Z,4.15
2023-01-09T16:50:00.476Z,4.18
2023-01-09T16:52:03.339Z,4.19
2023-01-09T16:54:05.470Z,4.19
2023-01-09T16:56:39.496Z,4.15
2023-01-09T16:58:41.733Z,4.18
2023-01-09T17:00:43.998Z,4.13
2023-01-09T17:02:46.734Z,4.17
2023-01-09T17:04:48.875Z,4.08
2023-01-09T17:06:51.178Z,4.12
2023-01-09T17:08:53.341Z,4.14
2023-01-09T17:10:56.193Z,4.11
2023-01-09T17:12:58.310Z,4.14
2023-01-09T17:15:02.562Z,4.16
2023-01-09T17:17:08.831Z,4.14
2023-01-09T17:19:18.958Z,4.15
2023-01-09T17:21:23.549Z,4.12
2023-01-09T17:23:26.051Z,4.14
2023-01-09T17:25:47.008Z,4.18
2023-01-09T17:28:07.799Z,4.15
2023-01-09T17:30:18.696Z,4.12
2023-01-09T17:32:21.450Z,4.11
2023-01-09T17:34:23.639Z,4.07
2023-01-09T17:36:34.761Z,4.11
2023-01-09T17:38:36.896Z,4.10
2023-01-09T17:40:39.099Z,4.06
2023-01-09T17:42:41.257Z,4.03
2023-01-09T17:44:43.433Z,3.98
2023-01-09T17:46:45.619Z,4.06
2023-01-09T17:48:47.730Z,4.09
2023-01-09T17:50:49.993Z,4.07
2023-01-09T17:52:52.021Z,4.11
2023-01-09T17:54:54.084Z,4.12
2023-01-09T17:56:56.238Z,4.07
2023-01-09T17:58:58.453Z,4.07
2023-01-09T18:01:00.712Z,4.05
2023-01-09T18:03:07.618Z,4.03
2023-01-09T18:05:09.975Z,4.02
2023-01-09T18:07:16.557Z,4.01
2023-01-09T18:09:18.732Z,3.97
2023-01-09T18:11:21.514Z,3.96
2023-01-09T18:13:23.655Z,4.00
2023-01-09T18:15:25.805Z,4.03
2023-01-09T18:17:27.852Z,3.98
2023-01-09T18:19:29.973Z,3.96
2023-01-09T18:21:32.167Z,3.95
2023-01-09T18:23:35.181Z,3.92
2023-01-09T18:25:43.497Z,3.96
2023-01-09T18:27:45.624Z,4.02
2023-01-09T18:29:47.800Z,4.02
2023-01-09T18:31:51.398Z,4.03
2023-01-09T18:33:56.551Z,3.98
2023-01-09T18:36:08.423Z,3.96
2023-01-09T18:38:10.887Z,3.96
2023-01-09T18:40:13.338Z,3.95
2023-01-09T18:42:15.494Z,3.94
2023-01-09T18:44:20.116Z,3.94
2023-01-09T18:46:25.445Z,3.95
2023-01-09T18:48:27.560Z,3.95
2023-01-09T18:50:29.619Z,3.96
2023-01-09T18:52:31.691Z,3.96
2023-01-09T18:54:33.824Z,3.98
2023-01-09T18:56:36.176Z,3.99
2023-01-09T18:58:38.277Z,3.96
2023-01-09T19:00:41.713Z,4.01
2023-01-09T19:02:43.892Z,4.02
2023-01-09T19:04:46.091Z,4.01
2023-01-09T19:06:48.275Z,3.99
2023-01-09T19:08:50.358Z,4.01
2023-01-09T19:10:53.361Z,4.00
2023-01-09T19:12:55.507Z,4.02
2023-01-09T19:14:57.600Z,4.03
2023-01-09T19:17:01.351Z,4.04
2023-01-09T19:19:03.432Z,4.08
2023-01-09T19:21:19.563Z,4.08
2023-01-09T19:23:24.747Z,4.08
2023-01-09T19:25:26.982Z,4.07
2023-01-09T19:27:30.475Z,4.09
2023-01-09T19:29:33.743Z,4.09
2023-01-09T19:31:36.924Z,4.13
2023-01-09T19:33:39.104Z,4.12
2023-01-09T19:35:41.332Z,4.16
2023-01-09T19:37:43.758Z,4.15
2023-01-09T19:39:46.924Z,4.14
2023-01-09T19:41:49.209Z,4.15
2023-01-09T19:43:51.289Z,4.19
2023-01-09T19:45:57.107Z,4.22
2023-01-09T19:48:00.015Z,4.22
2023-01-09T19:50:05.014Z,4.27
2023-01-09T19:52:07.386Z,4.26
2023-01-09T19:54:11.520Z,4.27
2023-01-09T19:56:16.677Z,4.29
2023-01-09T19:58:19.368Z,4.35
2023-01-09T20:00:21.374Z,4.33
2023-01-09T20:02:23.463Z,4.33
2023-01-09T20:04:27.626Z,4.35
2023-01-09T20:06:30.689Z,4.36
2023-01-09T20:08:32.772Z,4.37
2023-01-09T20:10:34.861Z,4.37
2023-01-09T20:12:37.208Z,4.37
2023-01-09T20:14:39.368Z,4.37
2023-01-09T20:16:42.181Z,4.37
2023-01-09T20:18:44.340Z,4.42
2023-01-09T20:20:50.480Z,4.37
2023-01-09T20:22:52.654Z,4.37
2023-01-09T20:24:54.887Z,4.38
2023-01-09T20:26:56.956Z,4.38
2023-01-09T20:29:00.777Z,4.46
2023-01-09T20:31:05.840Z,4.43
2023-01-09T20:33:08.010Z,4.44
2023-01-09T20:35:10.526Z,4.48
2023-01-09T20:37:12.823Z,4.47
2023-01-09T20:39:15.405Z,4.52
2023-01-09T20:41:26.665Z,4.51
2023-01-09T20:43:28.790Z,4.53
2023-01-09T20:45:39.770Z,4.53
2023-01-09T20:47:42.114Z,4.56
2023-01-09T20:49:44.586Z,4.59
2023-01-09T20:51:51.255Z,4.63
2023-01-09T20:53:56.765Z,4.63
2023-01-09T20:56:03.781Z,4.63
2023-01-09T20:58:07.194Z,4.64
2023-01-09T21:00:11.932Z,4.67
2023-01-09T21:02:14.743Z,4.70
2023-01-09T21:04:18.179Z,4.72
2023-01-09T21:06:22.020Z,4.73
2023-01-09T21:08:24.282Z,4.70
2023-01-09T21:10:26.367Z,4.72
2023-01-09T21:12:34.730Z,4.73
2023-01-09T21:14:38.936Z,4.78
2023-01-09T21:16:41.418Z,4.78
2023-01-09T21:18:44.388Z,4.79
2023-01-09T21:20:46.525Z,4.80
2023-01-09T21:22:49.441Z,4.81
2023-01-09T21:24:51.711Z,4.83
2023-01-09T21:26:53.931Z,4.84
2023-01-09T21:28:57.501Z,4.81
2023-01-09T21:30:59.638Z,4.85
2023-01-09T21:33:01.847Z,4.88
2023-01-09T21:35:05.985Z,4.83
2023-01-09T21:37:08.209Z,4.85
2023-01-09T21:39:10.323Z,4.87
2023-01-09T21:41:30.998Z,4.86
2023-01-09T21:43:51.695Z,4.86
2023-01-09T21:46:12.145Z,4.87
2023-01-09T21:48:16.579Z,4.86
2023-01-09T21:50:19.034Z,4.87
2023-01-09T21:52:21.162Z,4.84
2023-01-09T21:54:23.890Z,4.85
2023-01-09T21:56:25.914Z,4.83
2023-01-09T21:58:27.961Z,4.84
2023-01-09T22:00:30.298Z,4.81
2023-01-09T22:02:33.057Z,4.86
2023-01-09T22:04:35.105Z,4.85
2023-01-09T22:06:37.242Z,4.81
2023-01-09T22:08:39.339Z,4.82
2023-01-09T22:10:41.864Z,4.83
2023-01-09T22:13:03.881Z,4.90
2023-01-09T22:15:06.799Z,4.91
2023-01-09T22:17:08.882Z,4.92
2023-01-09T22:19:13.966Z,4.88
2023-01-09T22:21:17.670Z,4.84
2023-01-09T22:23:19.744Z,4.81
2023-01-09T22:25:22.860Z,4.84
2023-01-09T22:27:25.019Z,4.83
2023-01-09T22:29:27.071Z,4.87
2023-01-09T22:31:29.460Z,4.85
2023-01-09T22:33:31.615Z,4.84
2023-01-09T22:35:39.831Z,4.81
2023-01-09T22:37:41.917Z,4.81
2023-01-09T22:39:44.048Z,4.82
2023-01-09T22:41:50.424Z,4.78
2023-01-09T22:43:52.551Z,4.80
2023-01-09T22:45:59.160Z,4.78
2023-01-09T22:48:01.342Z,4.76
2023-01-09T22:50:03.667Z,4.73
2023-01-09T22:52:05.848Z,4.73
2023-01-09T22:54:08.024Z,4.74
2023-01-09T22:56:15.476Z,4.73
2023-01-09T22:58:17.627Z,4.78
2023-01-09T23:00:19.976Z,4.75
2023-01-09T23:02:22.215Z,4.71
2023-01-09T23:04:24.344Z,4.68
2023-01-09T23:06:26.521Z,4.64
2023-01-09T23:08:29.444Z,4.62
2023-01-09T23:10:31.590Z,4.60
2023-01-09T23:12:33.899Z,4.60
2023-01-09T23:14:37.449Z,4.59
2023-01-09T23:16:39.861Z,4.56
2023-01-09T23:18:41.958Z,4.54
2023-01-09T23:20:57.845Z,4.55
2023-01-09T23:22:59.975Z,4.49
2023-01-09T23:25:02.123Z,4.52
2023-01-09T23:27:04.689Z,4.52
2023-01-09T23:29:07.403Z,4.53
2023-01-09T23:31:09.421Z,4.47
2023-01-09T23:33:11.862Z,4.48
2023-01-09T23:35:16.180Z,4.47
2023-01-09T23:37:18.288Z,4.45
2023-01-09T23:39:20.451Z,4.42
2023-01-09T23:41:42.737Z,4.44
2023-01-09T23:43:45.087Z,4.40
2023-01-09T23:45:49.950Z,4.34
2023-01-09T23:47:52.005Z,4.30
2023-01-09T23:49:54.122Z,4.27
2023-01-09T23:51:56.607Z,4.24
2023-01-09T23:53:59.108Z,4.21
2023-01-09T23:56:01.568Z,4.13
2023-01-09T23:58:03.670Z,4.15
